sensor_id;sensor_type;location;lat;lon;timestamp;pressure;altitude;pressure_sealevel;temperature;humidity
75699;BME280;64313;51.018;13.742;2023-12-20T00:01:16;99235.22;;;6.48;78.58
75699;BME280;64313;51.018;13.742;2023-12-20T00:03:42;99235.41;;;6.46;79.00
75699;BME280;64313;51.018;13.742;2023-12-20T00:06:07;99235.63;;;6.45;77.83
75699;BME280;64313;51.018;13.742;2023-12-20T00:08:32;99220.91;;;6.42;78.85
75699;BME280;64313;51.018;13.742;2023-12-20T00:10:58;99232.31;;;6.43;78.23
75699;BME280;64313;51.018;13.742;2023-12-20T00:13:23;99237.19;;;6.39;77.70
75699;BME280;64313;51.018;13.742;2023-12-20T00:15:48;99225.78;;;6.39;77.53
75699;BME280;64313;51.018;13.742;2023-12-20T00:18:13;99222.69;;;6.35;77.83
75699;BME280;64313;51.018;13.742;2023-12-20T00:20:39;99218.41;;;6.34;77.21
75699;BME280;64313;51.018;13.742;2023-12-20T00:23:04;99213.53;;;6.31;77.64
75699;BME280;64313;51.018;13.742;2023-12-20T00:25:30;99209.41;;;6.29;77.81
75699;BME280;64313;51.018;13.742;2023-12-20T00:27:55;99211.63;;;6.25;77.47
75699;BME280;64313;51.018;13.742;2023-12-20T00:30:20;99209.97;;;6.24;78.25
75699;BME280;64313;51.018;13.742;2023-12-20T00:32:46;99200.41;;;6.23;77.48
75699;BME280;64313;51.018;13.742;2023-12-20T00:35:15;99212.19;;;6.20;78.14
75699;BME280;64313;51.018;13.742;2023-12-20T00:37:44;99211.59;;;6.18;77.55
75699;BME280;64313;51.018;13.742;2023-12-20T00:40:10;99212.56;;;6.17;77.18
75699;BME280;64313;51.018;13.742;2023-12-20T00:42:35;99214.81;;;6.14;77.33
75699;BME280;64313;51.018;13.742;2023-12-20T00:45:01;99211.53;;;6.12;77.28
75699;BME280;64313;51.018;13.742;2023-12-20T00:47:27;99209.25;;;6.09;77.69
75699;BME280;64313;51.018;13.742;2023-12-20T00:49:52;99206.00;;;6.07;77.31
75699;BME280;64313;51.018;13.742;2023-12-20T00:52:18;99203.50;;;6.05;77.91
75699;BME280;64313;51.018;13.742;2023-12-20T00:54:43;99198.00;;;6.00;77.72
75699;BME280;64313;51.018;13.742;2023-12-20T00:57:09;99196.34;;;5.99;77.30
75699;BME280;64313;51.018;13.742;2023-12-20T00:59:34;99193.06;;;5.97;77.40
75699;BME280;64313;51.018;13.742;2023-12-20T01:02:00;99190.81;;;5.94;76.90
75699;BME280;64313;51.018;13.742;2023-12-20T01:04:25;99192.00;;;5.91;77.99
75699;BME280;64313;51.018;13.742;2023-12-20T01:06:52;99178.94;;;5.90;77.11
75699;BME280;64313;51.018;13.742;2023-12-20T01:09:17;99165.91;;;5.88;77.82
75699;BME280;64313;51.018;13.742;2023-12-20T01:11:43;99168.75;;;5.87;77.58
75699;BME280;64313;51.018;13.742;2023-12-20T01:14:08;99171.75;;;5.84;77.28
75699;BME280;64313;51.018;13.742;2023-12-20T01:16:34;99174.59;;;5.82;77.75
75699;BME280;64313;51.018;13.742;2023-12-20T01:18:59;99171.31;;;5.80;77.40
75699;BME280;64313;51.018;13.742;2023-12-20T01:21:25;99164.56;;;5.78;77.97
75699;BME280;64313;51.018;13.742;2023-12-20T01:23:50;99164.38;;;5.79;78.18
75699;BME280;64313;51.018;13.742;2023-12-20T01:26:15;99166.78;;;5.74;77.81
75699;BME280;64313;51.018;13.742;2023-12-20T01:28:42;99161.66;;;5.72;77.06
75699;BME280;64313;51.018;13.742;2023-12-20T01:31:07;99158.22;;;5.72;77.18
75699;BME280;64313;51.018;13.742;2023-12-20T01:33:32;99162.88;;;5.70;77.89
75699;BME280;64313;51.018;13.742;2023-12-20T01:35:57;99162.06;;;5.69;77.55
75699;BME280;64313;51.018;13.742;2023-12-20T01:38:23;99164.91;;;5.68;77.58
75699;BME280;64313;51.018;13.742;2023-12-20T01:40:48;99162.06;;;5.69;77.73
75699;BME280;64313;51.018;13.742;2023-12-20T01:43:13;99156.97;;;5.68;77.79
75699;BME280;64313;51.018;13.742;2023-12-20T01:45:38;99152.69;;;5.67;77.54
75699;BME280;64313;51.018;13.742;2023-12-20T01:48:04;99143.09;;;5.66;77.68
75699;BME280;64313;51.018;13.742;2023-12-20T01:50:30;99151.22;;;5.64;77.79
75699;BME280;64313;51.018;13.742;2023-12-20T01:52:58;99153.25;;;5.62;77.76
75699;BME280;64313;51.018;13.742;2023-12-20T01:55:27;99155.28;;;5.60;77.31
75699;BME280;64313;51.018;13.742;2023-12-20T01:57:55;99149.34;;;5.58;77.56
75699;BME280;64313;51.018;13.742;2023-12-20T02:00:21;99146.06;;;5.56;77.92
75699;BME280;64313;51.018;13.742;2023-12-20T02:02:49;99151.56;;;5.55;78.53
75699;BME280;64313;51.018;13.742;2023-12-20T02:05:16;99142.81;;;5.54;78.32
75699;BME280;64313;51.018;13.742;2023-12-20T02:07:42;99151.72;;;5.53;78.16
75699;BME280;64313;51.018;13.742;2023-12-20T02:10:07;99149.28;;;5.52;78.38
75699;BME280;64313;51.018;13.742;2023-12-20T02:12:33;99146.81;;;5.50;77.38
75699;BME280;64313;51.018;13.742;2023-12-20T02:14:58;99139.91;;;5.49;78.01
75699;BME280;64313;51.018;13.742;2023-12-20T02:17:24;99137.47;;;5.48;77.53
75699;BME280;64313;51.018;13.742;2023-12-20T02:19:50;99133.16;;;5.47;77.58
75699;BME280;64313;51.018;13.742;2023-12-20T02:22:15;99136.81;;;5.46;77.37
75699;BME280;64313;51.018;13.742;2023-12-20T02:24:41;99136.00;;;5.45;77.96
75699;BME280;64313;51.018;13.742;2023-12-20T02:27:07;99138.63;;;5.45;77.96
75699;BME280;64313;51.018;13.742;2023-12-20T02:29:33;99131.91;;;5.42;77.76
75699;BME280;64313;51.018;13.742;2023-12-20T02:31:58;99131.09;;;5.42;78.31
75699;BME280;64313;51.018;13.742;2023-12-20T02:34:24;99130.09;;;5.43;77.54
75699;BME280;64313;51.018;13.742;2023-12-20T02:36:49;99129.47;;;5.41;77.84
75699;BME280;64313;51.018;13.742;2023-12-20T02:39:14;99125.97;;;5.40;77.60
75699;BME280;64313;51.018;13.742;2023-12-20T02:41:39;99125.97;;;5.40;77.44
75699;BME280;64313;51.018;13.742;2023-12-20T02:44:05;99122.72;;;5.38;78.12
75699;BME280;64313;51.018;13.742;2023-12-20T02:46:30;99110.50;;;5.37;77.70
75699;BME280;64313;51.018;13.742;2023-12-20T02:48:55;99117.81;;;5.35;78.26
75699;BME280;64313;51.018;13.742;2023-12-20T02:51:20;99117.00;;;5.35;78.36
75699;BME280;64313;51.018;13.742;2023-12-20T02:53:46;99113.69;;;5.33;78.07
75699;BME280;64313;51.018;13.742;2023-12-20T02:56:11;99122.44;;;5.33;77.91
75699;BME280;64313;51.018;13.742;2023-12-20T02:58:36;99123.66;;;5.31;78.07
75699;BME280;64313;51.018;13.742;2023-12-20T03:01:02;99129.94;;;5.30;77.90
75699;BME280;64313;51.018;13.742;2023-12-20T03:03:27;99110.78;;;5.28;78.05
75699;BME280;64313;51.018;13.742;2023-12-20T03:05:52;99122.22;;;5.28;78.06
75699;BME280;64313;51.018;13.742;2023-12-20T03:08:17;99114.44;;;5.27;78.38
75699;BME280;64313;51.018;13.742;2023-12-20T03:10:43;99111.00;;;5.26;78.46
75699;BME280;64313;51.018;13.742;2023-12-20T03:13:08;99106.53;;;5.27;78.07
75699;BME280;64313;51.018;13.742;2023-12-20T03:15:33;99104.06;;;5.25;77.80
75699;BME280;64313;51.018;13.742;2023-12-20T03:17:58;99113.00;;;5.24;77.61
75699;BME280;64313;51.018;13.742;2023-12-20T03:20:24;99106.09;;;5.23;78.00
75699;BME280;64313;51.018;13.742;2023-12-20T03:22:51;99118.50;;;5.23;78.09
75699;BME280;64313;51.018;13.742;2023-12-20T03:25:16;99103.66;;;5.22;78.88
75699;BME280;64313;51.018;13.742;2023-12-20T03:27:41;99101.97;;;5.21;78.95
75699;BME280;64313;51.018;13.742;2023-12-20T03:30:07;99093.22;;;5.20;78.75
75699;BME280;64313;51.018;13.742;2023-12-20T03:32:32;99102.19;;;5.19;78.98
75699;BME280;64313;51.018;13.742;2023-12-20T03:34:57;99098.53;;;5.20;78.00
75699;BME280;64313;51.018;13.742;2023-12-20T03:37:23;99082.03;;;5.18;78.35
75699;BME280;64313;51.018;13.742;2023-12-20T03:39:48;99091.59;;;5.19;78.41
75699;BME280;64313;51.018;13.742;2023-12-20T03:42:13;99082.25;;;5.16;78.78
75699;BME280;64313;51.018;13.742;2023-12-20T03:44:39;99092.81;;;5.16;78.25
75699;BME280;64313;51.018;13.742;2023-12-20T03:47:05;99092.63;;;5.18;78.51
75699;BME280;64313;51.018;13.742;2023-12-20T03:49:30;99091.81;;;5.18;78.13
75699;BME280;64313;51.018;13.742;2023-12-20T03:51:55;99090.16;;;5.16;78.46
75699;BME280;64313;51.018;13.742;2023-12-20T03:54:21;99096.47;;;5.15;78.46
75699;BME280;64313;51.018;13.742;2023-12-20T03:56:46;99088.69;;;5.14;79.43
75699;BME280;64313;51.018;13.742;2023-12-20T03:59:11;99085.25;;;5.13;78.73
75699;BME280;64313;51.018;13.742;2023-12-20T04:01:36;99088.91;;;5.12;78.71
75699;BME280;64313;51.018;13.742;2023-12-20T04:04:02;99085.25;;;5.13;78.79
75699;BME280;64313;51.018;13.742;2023-12-20T04:06:27;99093.38;;;5.12;79.03
75699;BME280;64313;51.018;13.742;2023-12-20T04:08:53;99093.38;;;5.12;79.21
75699;BME280;64313;51.018;13.742;2023-12-20T04:11:18;99093.56;;;5.10;78.79
75699;BME280;64313;51.018;13.742;2023-12-20T04:13:43;99088.28;;;5.10;79.34
75699;BME280;64313;51.018;13.742;2023-12-20T04:16:09;99086.66;;;5.09;79.82
75699;BME280;64313;51.018;13.742;2023-12-20T04:18:34;99096.41;;;5.09;79.42
75699;BME280;64313;51.018;13.742;2023-12-20T04:20:59;99092.75;;;5.10;79.85
75699;BME280;64313;51.018;13.742;2023-12-20T04:23:24;99088.47;;;5.09;79.60
75699;BME280;64313;51.018;13.742;2023-12-20T04:25:50;99091.13;;;5.09;79.93
75699;BME280;64313;51.018;13.742;2023-12-20T04:28:15;99083.00;;;5.10;79.56
75699;BME280;64313;51.018;13.742;2023-12-20T04:30:41;99089.91;;;5.11;80.04
75699;BME280;64313;51.018;13.742;2023-12-20T04:33:06;99093.56;;;5.10;80.13
75699;BME280;64313;51.018;13.742;2023-12-20T04:35:31;99101.50;;;5.10;79.70
75699;BME280;64313;51.018;13.742;2023-12-20T04:37:57;99101.69;;;5.09;80.38
75699;BME280;64313;51.018;13.742;2023-12-20T04:40:22;99088.47;;;5.09;79.72
75699;BME280;64313;51.018;13.742;2023-12-20T04:42:47;99093.09;;;5.07;80.59
75699;BME280;64313;51.018;13.742;2023-12-20T04:45:13;99085.81;;;5.09;80.28
75699;BME280;64313;51.018;13.742;2023-12-20T04:47:41;99099.03;;;5.09;80.60
75699;BME280;64313;51.018;13.742;2023-12-20T04:50:07;99086.00;;;5.07;80.25
75699;BME280;64313;51.018;13.742;2023-12-20T04:52:33;99086.00;;;5.07;80.14
75699;BME280;64313;51.018;13.742;2023-12-20T04:54:58;99101.03;;;5.07;80.79
75699;BME280;64313;51.018;13.742;2023-12-20T04:57:24;99089.44;;;5.08;80.46
75699;BME280;64313;51.018;13.742;2023-12-20T04:59:49;99099.22;;;5.07;81.01
75699;BME280;64313;51.018;13.742;2023-12-20T05:02:15;99093.91;;;5.07;80.22
75699;BME280;64313;51.018;13.742;2023-12-20T05:04:40;99096.56;;;5.07;81.15
75699;BME280;64313;51.018;13.742;2023-12-20T05:07:06;99100.03;;;5.08;80.79
75699;BME280;64313;51.018;13.742;2023-12-20T05:09:31;99094.72;;;5.08;81.10
75699;BME280;64313;51.018;13.742;2023-12-20T05:11:57;99091.28;;;5.07;81.17
75699;BME280;64313;51.018;13.742;2023-12-20T05:14:22;99106.13;;;5.08;81.07
75699;BME280;64313;51.018;13.742;2023-12-20T05:16:47;99104.31;;;5.09;81.17
75699;BME280;64313;51.018;13.742;2023-12-20T05:19:12;99111.25;;;5.10;81.43
75699;BME280;64313;51.018;13.742;2023-12-20T05:21:39;99105.97;;;5.10;81.64
75699;BME280;64313;51.018;13.742;2023-12-20T05:24:04;99102.31;;;5.11;80.82
75699;BME280;64313;51.018;13.742;2023-12-20T05:26:29;99112.25;;;5.09;81.78
75699;BME280;64313;51.018;13.742;2023-12-20T05:28:55;99111.06;;;5.11;81.23
75699;BME280;64313;51.018;13.742;2023-12-20T05:31:20;99124.25;;;5.11;81.60
75699;BME280;64313;51.018;13.742;2023-12-20T05:33:46;99127.72;;;5.12;81.48
75699;BME280;64313;51.018;13.742;2023-12-20T05:36:11;99125.91;;;5.12;81.44
75699;BME280;64313;51.018;13.742;2023-12-20T05:38:38;99120.59;;;5.12;81.55
75699;BME280;64313;51.018;13.742;2023-12-20T05:41:03;99122.25;;;5.13;80.77
75699;BME280;64313;51.018;13.742;2023-12-20T05:43:29;99116.16;;;5.13;81.31
75699;BME280;64313;51.018;13.742;2023-12-20T05:45:54;99116.97;;;5.13;81.43
75699;BME280;64313;51.018;13.742;2023-12-20T05:48:19;99127.53;;;5.13;81.08
75699;BME280;64313;51.018;13.742;2023-12-20T05:50:45;99127.53;;;5.13;81.32
75699;BME280;64313;51.018;13.742;2023-12-20T05:53:10;99131.19;;;5.12;81.76
75699;BME280;64313;51.018;13.742;2023-12-20T05:55:35;99134.66;;;5.13;81.80
75699;BME280;64313;51.018;13.742;2023-12-20T05:58:00;99131.19;;;5.12;81.05
75699;BME280;64313;51.018;13.742;2023-12-20T06:00:26;99136.66;;;5.11;81.26
75699;BME280;64313;51.018;13.742;2023-12-20T06:02:51;99139.09;;;5.12;82.03
75699;BME280;64313;51.018;13.742;2023-12-20T06:05:16;99147.03;;;5.12;81.56
75699;BME280;64313;51.018;13.742;2023-12-20T06:07:41;99156.59;;;5.13;81.91
75699;BME280;64313;51.018;13.742;2023-12-20T06:10:07;99157.41;;;5.14;81.36
75699;BME280;64313;51.018;13.742;2023-12-20T06:12:32;99147.66;;;5.14;81.74
75699;BME280;64313;51.018;13.742;2023-12-20T06:15:00;99140.75;;;5.13;81.82
75699;BME280;64313;51.018;13.742;2023-12-20T06:17:26;99147.66;;;5.14;81.01
75699;BME280;64313;51.018;13.742;2023-12-20T06:19:51;99155.59;;;5.14;81.83
75699;BME280;64313;51.018;13.742;2023-12-20T06:22:16;99148.47;;;5.15;81.80
75699;BME280;64313;51.018;13.742;2023-12-20T06:24:42;99146.84;;;5.14;81.86
75699;BME280;64313;51.018;13.742;2023-12-20T06:27:07;99152.78;;;5.16;81.80
75699;BME280;64313;51.018;13.742;2023-12-20T06:29:32;99149.31;;;5.15;81.98
75699;BME280;64313;51.018;13.742;2023-12-20T06:31:57;99146.69;;;5.15;81.18
75699;BME280;64313;51.018;13.742;2023-12-20T06:34:23;99154.63;;;5.15;81.09
75699;BME280;64313;51.018;13.742;2023-12-20T06:36:48;99163.34;;;5.16;80.97
75699;BME280;64313;51.018;13.742;2023-12-20T06:39:13;99163.53;;;5.14;81.20
75699;BME280;64313;51.018;13.742;2023-12-20T06:41:39;99172.09;;;5.16;80.80
75699;BME280;64313;51.018;13.742;2023-12-20T06:44:04;99175.56;;;5.17;81.98
75699;BME280;64313;51.018;13.742;2023-12-20T06:46:30;99186.97;;;5.18;81.18
75699;BME280;64313;51.018;13.742;2023-12-20T06:48:55;99183.50;;;5.17;81.97
75699;BME280;64313;51.018;13.742;2023-12-20T06:51:21;99187.97;;;5.16;81.53
75699;BME280;64313;51.018;13.742;2023-12-20T06:53:46;99198.53;;;5.16;81.09
75699;BME280;64313;51.018;13.742;2023-12-20T06:56:11;99188.78;;;5.17;81.25
75699;BME280;64313;51.018;13.742;2023-12-20T06:58:41;99188.97;;;5.15;81.58
75699;BME280;64313;51.018;13.742;2023-12-20T07:01:10;99195.91;;;5.16;81.01
75699;BME280;64313;51.018;13.742;2023-12-20T07:03:36;99199.34;;;5.17;81.73
75699;BME280;64313;51.018;13.742;2023-12-20T07:06:01;99201.19;;;5.16;81.75
75699;BME280;64313;51.018;13.742;2023-12-20T07:08:27;99205.66;;;5.16;82.20
75699;BME280;64313;51.018;13.742;2023-12-20T07:10:53;99202.81;;;5.18;81.38
75699;BME280;64313;51.018;13.742;2023-12-20T07:13:24;99219.50;;;5.18;81.38
75699;BME280;64313;51.018;13.742;2023-12-20T07:15:50;99203.63;;;5.18;82.04
75699;BME280;64313;51.018;13.742;2023-12-20T07:18:15;99202.63;;;5.19;81.61
75699;BME280;64313;51.018;13.742;2023-12-20T07:20:40;99196.53;;;5.19;81.83
75699;BME280;64313;51.018;13.742;2023-12-20T07:23:05;99202.63;;;5.19;81.28
75699;BME280;64313;51.018;13.742;2023-12-20T07:25:31;99201.63;;;5.20;81.25
75699;BME280;64313;51.018;13.742;2023-12-20T07:27:58;99215.03;;;5.19;81.87
75699;BME280;64313;51.018;13.742;2023-12-20T07:30:24;99219.31;;;5.20;81.28
75699;BME280;64313;51.018;13.742;2023-12-20T07:32:49;99214.84;;;5.20;81.45
75699;BME280;64313;51.018;13.742;2023-12-20T07:35:15;99217.47;;;5.20;81.00
75699;BME280;64313;51.018;13.742;2023-12-20T07:37:41;99205.06;;;5.21;81.37
75699;BME280;64313;51.018;13.742;2023-12-20T07:40:06;99205.06;;;5.21;81.56
75699;BME280;64313;51.018;13.742;2023-12-20T07:42:32;99206.91;;;5.20;81.00
75699;BME280;64313;51.018;13.742;2023-12-20T07:44:58;99208.72;;;5.20;80.72
75699;BME280;64313;51.018;13.742;2023-12-20T07:47:23;99214.00;;;5.20;81.10
75699;BME280;64313;51.018;13.742;2023-12-20T07:49:50;99214.00;;;5.20;81.10
75699;BME280;64313;51.018;13.742;2023-12-20T07:52:17;99206.91;;;5.20;81.29
75699;BME280;64313;51.018;13.742;2023-12-20T07:54:44;99206.09;;;5.20;80.93
75699;BME280;64313;51.018;13.742;2023-12-20T07:57:09;99203.44;;;5.20;80.99
75699;BME280;64313;51.018;13.742;2023-12-20T07:59:35;99204.25;;;5.20;80.92
75699;BME280;64313;51.018;13.742;2023-12-20T08:02:01;99199.97;;;5.19;80.30
75699;BME280;64313;51.018;13.742;2023-12-20T08:04:26;99203.63;;;5.18;80.65
75699;BME280;64313;51.018;13.742;2023-12-20T08:06:52;99211.56;;;5.18;80.77
75699;BME280;64313;51.018;13.742;2023-12-20T08:09:17;99208.28;;;5.16;80.26
75699;BME280;64313;51.018;13.742;2023-12-20T08:11:46;99217.84;;;5.17;79.67
75699;BME280;64313;51.018;13.742;2023-12-20T08:14:11;99219.69;;;5.16;80.05
75699;BME280;64313;51.018;13.742;2023-12-20T08:16:36;99218.06;;;5.15;78.97
75699;BME280;64313;51.018;13.742;2023-12-20T08:19:02;99220.31;;;5.19;79.79
75699;BME280;64313;51.018;13.742;2023-12-20T08:21:27;99213.00;;;5.21;79.58
75699;BME280;64313;51.018;13.742;2023-12-20T08:23:52;99221.22;;;5.26;79.51
75699;BME280;64313;51.018;13.742;2023-12-20T08:26:21;99215.56;;;5.29;78.92
75699;BME280;64313;51.018;13.742;2023-12-20T08:28:47;99218.84;;;5.31;78.94
75699;BME280;64313;51.018;13.742;2023-12-20T08:31:16;99217.63;;;5.33;78.48
75699;BME280;64313;51.018;13.742;2023-12-20T08:33:43;99214.63;;;5.36;78.75
75699;BME280;64313;51.018;13.742;2023-12-20T08:36:09;99214.44;;;5.38;78.38
75699;BME280;64313;51.018;13.742;2023-12-20T08:38:34;99211.25;;;5.42;78.77
75699;BME280;64313;51.018;13.742;2023-12-20T08:41:00;99209.84;;;5.47;77.51
75699;BME280;64313;51.018;13.742;2023-12-20T08:43:26;99216.41;;;5.51;77.97
75699;BME280;64313;51.018;13.742;2023-12-20T08:45:51;99214.84;;;5.56;77.94
75699;BME280;64313;51.018;13.742;2023-12-20T08:48:16;99213.47;;;5.60;76.83
75699;BME280;64313;51.018;13.742;2023-12-20T08:50:42;99220.81;;;5.65;76.71
75699;BME280;64313;51.018;13.742;2023-12-20T08:53:07;99217.63;;;5.69;76.41
75699;BME280;64313;51.018;13.742;2023-12-20T08:55:32;99216.06;;;5.75;76.52
75699;BME280;64313;51.018;13.742;2023-12-20T08:57:58;99228.88;;;5.78;74.70
75699;BME280;64313;51.018;13.742;2023-12-20T09:00:23;99237.28;;;5.82;74.73
75699;BME280;64313;51.018;13.742;2023-12-20T09:02:52;99234.25;;;5.85;73.70
75699;BME280;64313;51.018;13.742;2023-12-20T09:05:17;99233.22;;;5.86;72.81
75699;BME280;64313;51.018;13.742;2023-12-20T09:07:43;99230.59;;;5.86;73.06
75699;BME280;64313;51.018;13.742;2023-12-20T09:10:08;99227.94;;;5.86;71.95
75699;BME280;64313;51.018;13.742;2023-12-20T09:12:33;99225.28;;;5.86;70.81
75699;BME280;64313;51.018;13.742;2023-12-20T09:14:58;99221.47;;;5.88;72.19
75699;BME280;64313;51.018;13.742;2023-12-20T09:17:26;99233.69;;;5.89;71.27
75699;BME280;64313;51.018;13.742;2023-12-20T09:19:51;99224.56;;;5.92;71.60
75699;BME280;64313;51.018;13.742;2023-12-20T09:22:19;99236.63;;;5.94;71.83
75699;BME280;64313;51.018;13.742;2023-12-20T09:24:44;99228.94;;;6.00;73.02
75699;BME280;64313;51.018;13.742;2023-12-20T09:27:10;99234.44;;;6.05;72.34
75699;BME280;64313;51.018;13.742;2023-12-20T09:29:35;99222.50;;;6.09;72.25
75699;BME280;64313;51.018;13.742;2023-12-20T09:32:00;99226.00;;;6.16;73.48
75699;BME280;64313;51.018;13.742;2023-12-20T09:34:25;99222.59;;;6.22;72.47
75699;BME280;64313;51.018;13.742;2023-12-20T09:36:52;99220.81;;;6.29;72.45
75699;BME280;64313;51.018;13.742;2023-12-20T09:39:17;99211.28;;;6.35;72.69
75699;BME280;64313;51.018;13.742;2023-12-20T09:42:01;99211.34;;;6.41;73.13
75699;BME280;64313;51.018;13.742;2023-12-20T09:44:27;99206.09;;;6.48;71.27
75699;BME280;64313;51.018;13.742;2023-12-20T09:46:52;99205.50;;;6.53;71.53
75699;BME280;64313;51.018;13.742;2023-12-20T09:49:19;99201.44;;;6.57;71.50
75699;BME280;64313;51.018;13.742;2023-12-20T09:51:46;99197.41;;;6.61;71.41
75699;BME280;64313;51.018;13.742;2023-12-20T09:54:14;99208.59;;;6.63;70.21
75699;BME280;64313;51.018;13.742;2023-12-20T09:56:39;99199.06;;;6.68;71.14
75699;BME280;64313;51.018;13.742;2023-12-20T09:59:04;99194.22;;;6.72;71.83
75699;BME280;64313;51.018;13.742;2023-12-20T10:01:30;99190.34;;;6.74;70.03
75699;BME280;64313;51.018;13.742;2023-12-20T10:03:56;99184.22;;;6.74;69.70
75699;BME280;64313;51.018;13.742;2023-12-20T10:06:23;99189.31;;;6.75;70.05
75699;BME280;64313;51.018;13.742;2023-12-20T10:08:48;99176.88;;;6.76;70.39
75699;BME280;64313;51.018;13.742;2023-12-20T10:11:14;99169.13;;;6.74;68.66
75699;BME280;64313;51.018;13.742;2023-12-20T10:13:40;99172.81;;;6.73;69.62
75699;BME280;64313;51.018;13.742;2023-12-20T10:16:06;99175.88;;;6.70;67.93
75699;BME280;64313;51.018;13.742;2023-12-20T10:18:32;99182.78;;;6.71;68.69
75699;BME280;64313;51.018;13.742;2023-12-20T10:20:58;99174.84;;;6.71;68.72
75699;BME280;64313;51.018;13.742;2023-12-20T10:23:23;99167.72;;;6.72;68.83
75699;BME280;64313;51.018;13.742;2023-12-20T10:25:58;99163.22;;;6.72;68.06
75699;BME280;64313;51.018;13.742;2023-12-20T10:28:24;99155.28;;;6.72;67.82
75699;BME280;64313;51.018;13.742;2023-12-20T10:30:53;99149.56;;;6.75;67.53
75699;BME280;64313;51.018;13.742;2023-12-20T10:33:25;99155.69;;;6.76;67.28
75699;BME280;64313;51.018;13.742;2023-12-20T10:35:52;99145.94;;;6.76;67.90
75699;BME280;64313;51.018;13.742;2023-12-20T10:38:17;99151.84;;;6.78;68.33
75699;BME280;64313;51.018;13.742;2023-12-20T10:40:45;99154.50;;;6.78;66.74
75699;BME280;64313;51.018;13.742;2023-12-20T10:43:11;99147.38;;;6.79;66.88
75699;BME280;64313;51.018;13.742;2023-12-20T10:45:36;99149.44;;;6.84;67.91
75699;BME280;64313;51.018;13.742;2023-12-20T10:48:02;99132.31;;;6.86;66.65
75699;BME280;64313;51.018;13.742;2023-12-20T10:50:27;99119.88;;;6.87;67.57
75699;BME280;64313;51.018;13.742;2023-12-20T10:52:54;99108.44;;;6.86;64.71
75699;BME280;64313;51.018;13.742;2023-12-20T10:55:22;99114.78;;;6.85;64.40
75699;BME280;64313;51.018;13.742;2023-12-20T10:57:49;99110.28;;;6.86;65.68
75699;BME280;64313;51.018;13.742;2023-12-20T11:00:17;99108.25;;;6.88;65.60
75699;BME280;64313;51.018;13.742;2023-12-20T11:02:43;99109.69;;;6.90;65.30
75699;BME280;64313;51.018;13.742;2023-12-20T11:05:28;99112.16;;;6.92;63.96
75699;BME280;64313;51.018;13.742;2023-12-20T11:08:06;99109.06;;;6.95;65.39
75699;BME280;64313;51.018;13.742;2023-12-20T11:11:07;99108.91;;;6.96;64.45
75699;BME280;64313;51.018;13.742;2023-12-20T11:13:41;99111.34;;;6.98;63.22
75699;BME280;64313;51.018;13.742;2023-12-20T11:16:10;99118.06;;;7.00;63.97
75699;BME280;64313;51.018;13.742;2023-12-20T11:18:35;99103.63;;;7.03;63.66
75699;BME280;64313;51.018;13.742;2023-12-20T11:21:04;99105.03;;;7.05;63.57
75699;BME280;64313;51.018;13.742;2023-12-20T11:23:31;99083.84;;;7.05;62.32
75699;BME280;64313;51.018;13.742;2023-12-20T11:25:59;99102.19;;;7.07;61.93
75699;BME280;64313;51.018;13.742;2023-12-20T11:28:25;99094.88;;;7.09;62.89
75699;BME280;64313;51.018;13.742;2023-12-20T11:30:56;99113.59;;;7.07;62.78
75699;BME280;64313;51.018;13.742;2023-12-20T11:33:41;99112.78;;;7.07;63.02
75699;BME280;64313;51.018;13.742;2023-12-20T11:36:18;99110.56;;;7.04;62.85
75699;BME280;64313;51.018;13.742;2023-12-20T11:38:55;99110.13;;;7.00;62.13
75699;BME280;64313;51.018;13.742;2023-12-20T11:41:22;99105.22;;;6.97;62.33
75699;BME280;64313;51.018;13.742;2023-12-20T11:43:52;99097.66;;;6.94;62.78
75699;BME280;64313;51.018;13.742;2023-12-20T11:46:18;99091.75;;;6.92;62.86
75699;BME280;64313;51.018;13.742;2023-12-20T11:48:44;99094.41;;;6.92;62.66
75699;BME280;64313;51.018;13.742;2023-12-20T11:51:13;99091.97;;;6.91;63.05
75699;BME280;64313;51.018;13.742;2023-12-20T11:53:39;99095.22;;;6.93;62.94
75699;BME280;64313;51.018;13.742;2023-12-20T11:56:07;99090.31;;;6.90;62.71
75699;BME280;64313;51.018;13.742;2023-12-20T12:01:14;99071.13;;;6.88;62.61
75699;BME280;64313;51.018;13.742;2023-12-20T12:03:42;99057.06;;;6.87;62.59
75699;BME280;64313;51.018;13.742;2023-12-20T12:06:09;99063.19;;;6.88;62.14
75699;BME280;64313;51.018;13.742;2023-12-20T12:08:35;99055.88;;;6.90;62.77
75699;BME280;64313;51.018;13.742;2023-12-20T12:11:01;99065.25;;;6.92;61.51
75699;BME280;64313;51.018;13.742;2023-12-20T12:13:26;99064.03;;;6.95;62.42
75699;BME280;64313;51.018;13.742;2023-12-20T12:15:53;99047.13;;;6.96;61.77
75699;BME280;64313;51.018;13.742;2023-12-20T12:18:18;99049.56;;;6.97;62.22
75699;BME280;64313;51.018;13.742;2023-12-20T12:20:44;99048.34;;;7.00;62.02
75699;BME280;64313;51.018;13.742;2023-12-20T12:23:09;99047.94;;;7.03;62.10
75699;BME280;64313;51.018;13.742;2023-12-20T12:25:35;99038.97;;;7.04;62.29
75699;BME280;64313;51.018;13.742;2023-12-20T12:28:02;99037.13;;;7.04;61.92
75699;BME280;64313;51.018;13.742;2023-12-20T12:30:27;99021.84;;;7.06;61.84
75699;BME280;64313;51.018;13.742;2023-12-20T12:32:53;99020.81;;;7.07;61.02
75699;BME280;64313;51.018;13.742;2023-12-20T12:35:19;99017.16;;;7.09;61.57
75699;BME280;64313;51.018;13.742;2023-12-20T12:37:44;99025.94;;;7.09;61.14
75699;BME280;64313;51.018;13.742;2023-12-20T12:40:10;99020.44;;;7.11;61.68
75699;BME280;64313;51.018;13.742;2023-12-20T12:42:37;99015.13;;;7.11;60.48
75699;BME280;64313;51.018;13.742;2023-12-20T12:45:02;99012.47;;;7.11;61.20
75699;BME280;64313;51.018;13.742;2023-12-20T12:47:28;99018.59;;;7.11;60.97
75699;BME280;64313;51.018;13.742;2023-12-20T12:49:53;99007.97;;;7.11;60.40
75699;BME280;64313;51.018;13.742;2023-12-20T12:52:19;99019.59;;;7.10;60.97
75699;BME280;64313;51.018;13.742;2023-12-20T12:54:45;98995.75;;;7.10;60.84
75699;BME280;64313;51.018;13.742;2023-12-20T12:57:11;98984.72;;;7.06;60.81